createdAt,value
2022-08-27T00:01:43.344Z,99856.75
2022-08-27T00:04:09.735Z,99855.09
2022-08-27T00:06:36.565Z,99853.19
2022-08-27T00:09:04.184Z,99864.38
2022-08-27T00:11:30.505Z,99865.41
2022-08-27T00:13:56.796Z,99864.19
2022-08-27T00:16:23.528Z,99869.25
2022-08-27T00:18:49.858Z,99856.97
2022-08-27T00:21:16.172Z,99863.72
2022-08-27T00:23:42.472Z,99860.19
2022-08-27T00:26:08.809Z,99855.56
2022-08-27T00:28:35.273Z,99854.56
2022-08-27T00:31:01.593Z,99862.38
2022-08-27T00:33:27.894Z,99857.16
2022-08-27T00:35:54.202Z,99871.09
2022-08-27T00:38:20.520Z,99866.91
2022-08-27T00:40:46.893Z,99871.53
2022-08-27T00:43:13.313Z,99878.38
2022-08-27T00:45:39.690Z,99870.38
2022-08-27T00:48:06.080Z,99876.25
2022-08-27T00:50:33.449Z,99874.81
2022-08-27T00:52:59.757Z,99870.81
2022-08-27T00:55:28.720Z,99868.22
2022-08-27T00:57:55.017Z,99872.81
2022-08-27T01:00:21.319Z,99869.78
2022-08-27T01:02:48.371Z,99863.69
2022-08-27T01:05:15.266Z,99870.41
2022-08-27T01:07:41.486Z,99863.28
2022-08-27T01:10:07.794Z,99865.38
2022-08-27T01:12:34.599Z,99868.47
2022-08-27T01:15:00.892Z,99861.72
2022-08-27T01:17:27.532Z,99868.72
2022-08-27T01:19:53.839Z,99862.44
2022-08-27T01:22:23.193Z,99862.00
2022-08-27T01:24:49.867Z,99865.84
2022-08-27T01:27:16.219Z,99866.88
2022-08-27T01:29:42.522Z,99876.19
2022-08-27T01:32:09.392Z,99870.88
2022-08-27T01:34:35.629Z,99878.03
2022-08-27T01:37:01.941Z,99873.75
2022-08-27T01:39:28.244Z,99868.94
2022-08-27T01:41:54.539Z,99875.84
2022-08-27T01:44:21.083Z,99872.50
2022-08-27T01:46:47.474Z,99864.72
2022-08-27T01:49:13.866Z,99869.16
2022-08-27T01:51:40.184Z,99866.16
2022-08-27T01:54:06.831Z,99858.38
2022-08-27T01:56:33.145Z,99866.16
2022-08-27T01:58:59.447Z,99848.91
2022-08-27T02:01:25.842Z,99853.13
2022-08-27T02:03:52.213Z,99849.53
2022-08-27T02:06:18.522Z,99848.06
2022-08-27T02:08:45.065Z,99847.59
2022-08-27T02:11:11.385Z,99855.19
2022-08-27T02:13:37.718Z,99854.56
2022-08-27T02:16:04.187Z,99855.00
2022-08-27T02:18:30.520Z,99853.75
2022-08-27T02:20:56.833Z,99856.31
2022-08-27T02:23:23.140Z,99846.81
2022-08-27T02:25:49.457Z,99844.72
2022-08-27T02:28:15.785Z,99840.06
2022-08-27T02:30:42.103Z,99841.34
2022-08-27T02:33:08.418Z,99838.81
2022-08-27T02:35:34.724Z,99837.50
2022-08-27T02:38:02.023Z,99831.94
2022-08-27T02:40:28.473Z,99832.13
2022-08-27T02:42:54.880Z,99832.31
2022-08-27T02:45:21.170Z,99829.84
2022-08-27T02:47:48.493Z,99822.91
2022-08-27T02:50:14.821Z,99828.00
2022-08-27T02:52:41.124Z,99828.72
2022-08-27T02:55:07.454Z,99825.41
2022-08-27T02:57:36.382Z,99823.97
2022-08-27T03:00:03.220Z,99819.78
2022-08-27T03:02:29.615Z,99816.63
2022-08-27T03:04:55.982Z,99821.06
2022-08-27T03:07:24.279Z,99822.31
2022-08-27T03:09:50.597Z,99822.75
2022-08-27T03:12:16.904Z,99822.09
2022-08-27T03:14:43.296Z,99822.09
2022-08-27T03:17:28.103Z,99827.78
2022-08-27T03:19:55.521Z,99832.03
2022-08-27T03:22:21.825Z,99833.66
2022-08-27T03:24:48.167Z,99843.56
2022-08-27T03:27:15.329Z,99832.22
2022-08-27T03:29:41.650Z,99841.25
2022-08-27T03:32:07.976Z,99836.00
2022-08-27T03:34:34.318Z,99838.00
2022-08-27T03:37:01.376Z,99843.25
2022-08-27T03:39:27.701Z,99846.16
2022-08-27T03:41:55.706Z,99853.31
2022-08-27T03:44:22.209Z,99860.09
2022-08-27T03:46:48.700Z,99841.75
2022-08-27T03:49:15.170Z,99855.25
2022-08-27T03:51:41.473Z,99853.59
2022-08-27T03:54:07.771Z,99852.94
2022-08-27T03:56:39.187Z,99854.63
2022-08-27T03:59:05.820Z,99860.50
2022-08-27T04:01:32.209Z,99854.53
2022-08-27T04:03:58.539Z,99857.94
2022-08-27T04:06:24.835Z,99851.41
2022-08-27T04:08:51.130Z,99851.66
2022-08-27T04:11:17.595Z,99859.25
2022-08-27T04:13:44.364Z,99861.34
2022-08-27T04:16:10.785Z,99856.22
2022-08-27T04:18:37.111Z,99851.56
2022-08-27T04:21:03.433Z,99853.69
2022-08-27T04:23:29.740Z,99850.44
2022-08-27T04:25:56.061Z,99855.69
2022-08-27T04:28:22.351Z,99849.41
2022-08-27T04:30:48.681Z,99851.31
2022-08-27T04:33:14.984Z,99848.38
2022-08-27T04:35:41.279Z,99860.47
2022-08-27T04:38:07.636Z,99857.72
2022-08-27T04:40:52.970Z,99862.69
2022-08-27T04:43:19.290Z,99863.91
2022-08-27T04:45:45.591Z,99863.19
2022-08-27T04:48:12.016Z,99859.94
2022-08-27T04:50:38.452Z,99864.06
2022-08-27T04:53:04.747Z,99862.94
2022-08-27T04:55:31.166Z,99863.13
2022-08-27T04:57:57.502Z,99859.94
2022-08-27T05:00:23.805Z,99848.97
2022-08-27T05:02:50.159Z,99854.84
2022-08-27T05:05:16.936Z,99842.88
2022-08-27T05:07:43.423Z,99855.97
2022-08-27T05:10:09.720Z,99846.31
2022-08-27T05:12:36.029Z,99848.53
2022-08-27T05:15:02.336Z,99847.69
2022-08-27T05:17:31.308Z,99847.75
2022-08-27T05:19:57.628Z,99849.78
2022-08-27T05:22:23.948Z,99847.38
2022-08-27T05:24:50.451Z,99847.88
2022-08-27T05:27:17.688Z,99853.75
2022-08-27T05:29:43.983Z,99847.38
2022-08-27T05:32:10.433Z,99845.34
2022-08-27T05:34:36.725Z,99838.75
2022-08-27T05:37:03.041Z,99841.72
2022-08-27T05:39:29.338Z,99847.88
2022-08-27T05:41:55.647Z,99848.25
2022-08-27T05:44:41.071Z,99841.25
2022-08-27T05:47:08.089Z,99846.72
2022-08-27T05:49:34.429Z,99837.94
2022-08-27T05:52:00.736Z,99850.56
2022-08-27T05:54:27.060Z,99843.69
2022-08-27T05:56:53.361Z,99851.66
2022-08-27T05:59:38.207Z,99853.84
2022-08-27T06:02:05.853Z,99849.16
2022-08-27T06:04:32.170Z,99855.44
2022-08-27T06:06:58.462Z,99859.22
2022-08-27T06:09:24.785Z,99862.53
2022-08-27T06:11:51.092Z,99855.91
2022-08-27T06:14:17.409Z,99855.47
2022-08-27T06:16:44.303Z,99872.09
2022-08-27T06:19:12.113Z,99863.75
2022-08-27T06:21:38.347Z,99860.41
2022-08-27T06:24:04.652Z,99861.00
2022-08-27T06:26:30.953Z,99862.78
2022-08-27T06:28:57.856Z,99866.53
2022-08-27T06:31:24.160Z,99868.91
2022-08-27T06:33:51.680Z,99871.50
2022-08-27T06:36:18.176Z,99865.56
2022-08-27T06:38:44.628Z,99868.75
2022-08-27T06:41:16.396Z,99873.19
2022-08-27T06:43:49.539Z,99873.78
2022-08-27T06:46:15.916Z,99874.00
2022-08-27T06:48:44.903Z,99881.38
2022-08-27T06:51:12.505Z,99878.94
2022-08-27T06:53:38.809Z,99876.28
2022-08-27T06:56:05.291Z,99882.38
2022-08-27T06:58:31.600Z,99876.72
2022-08-27T07:00:57.909Z,99880.81
2022-08-27T07:03:24.216Z,99888.75
2022-08-27T07:05:50.689Z,99885.44
2022-08-27T07:08:16.996Z,99887.75
2022-08-27T07:10:43.320Z,99887.06
2022-08-27T07:13:09.637Z,99895.44
2022-08-27T07:15:35.990Z,99898.28
2022-08-27T07:18:04.105Z,99901.38
2022-08-27T07:20:32.979Z,99892.78
2022-08-27T07:22:59.288Z,99890.97
2022-08-27T07:25:26.163Z,99894.53
2022-08-27T07:27:52.403Z,99885.50
2022-08-27T07:30:18.741Z,99889.84
2022-08-27T07:32:45.058Z,99886.78
2022-08-27T07:35:11.356Z,99888.84
2022-08-27T07:37:37.660Z,99898.00
2022-08-27T07:40:04.010Z,99895.84
2022-08-27T07:42:49.200Z,99903.19
2022-08-27T07:45:15.510Z,99896.69
2022-08-27T07:47:42.351Z,99907.91
2022-08-27T07:50:08.660Z,99915.69
2022-08-27T07:52:35.146Z,99908.75
2022-08-27T07:55:01.495Z,99914.84
2022-08-27T07:57:27.806Z,99916.31
2022-08-27T07:59:54.102Z,99932.16
2022-08-27T08:02:20.495Z,99923.94
2022-08-27T08:04:47.036Z,99920.50
2022-08-27T08:07:13.823Z,99927.81
2022-08-27T08:09:40.119Z,99921.03
2022-08-27T08:12:07.464Z,99924.81
2022-08-27T08:14:33.807Z,99927.91
2022-08-27T08:17:00.628Z,99925.84
2022-08-27T08:19:27.444Z,99924.25
2022-08-27T08:21:59.468Z,99915.78
2022-08-27T08:24:26.796Z,99920.44
2022-08-27T08:26:53.131Z,99924.66
2022-08-27T08:29:19.512Z,99929.09
2022-08-27T08:31:50.305Z,99929.47
2022-08-27T08:34:16.804Z,99927.19
2022-08-27T08:36:44.636Z,99936.84
2022-08-27T08:39:20.301Z,99934.56
2022-08-27T08:41:46.611Z,99941.31
2022-08-27T08:44:12.912Z,99938.78
2022-08-27T08:46:39.717Z,99947.09
2022-08-27T08:49:06.024Z,99940.47
2022-08-27T08:51:32.660Z,99935.97
2022-08-27T08:53:58.984Z,99944.47
2022-08-27T08:56:25.315Z,99945.63
2022-08-27T08:58:51.615Z,99947.47
2022-08-27T09:01:18.580Z,99943.94
2022-08-27T09:03:45.003Z,99953.94
2022-08-27T09:06:11.945Z,99953.16
2022-08-27T09:08:41.698Z,99955.13
2022-08-27T09:11:08.456Z,99952.94
2022-08-27T09:13:34.759Z,99948.19
2022-08-27T09:16:01.147Z,99953.56
2022-08-27T09:18:27.999Z,99958.91
2022-08-27T09:20:54.574Z,99959.47
2022-08-27T09:23:22.563Z,99958.72
2022-08-27T09:25:48.881Z,99958.78
2022-08-27T09:28:33.816Z,99959.34
2022-08-27T09:31:00.235Z,99952.44
2022-08-27T09:33:26.616Z,99963.59
2022-08-27T09:36:12.935Z,99964.50
2022-08-27T09:38:41.122Z,99964.94
2022-08-27T09:41:07.388Z,99966.25
2022-08-27T09:43:33.679Z,99958.56
2022-08-27T09:46:00.144Z,99956.22
2022-08-27T09:48:26.528Z,99955.03
2022-08-27T09:50:52.921Z,99963.13
2022-08-27T09:53:19.221Z,99965.69
2022-08-27T09:55:46.599Z,99963.44
2022-08-27T09:58:12.927Z,99957.66
2022-08-27T10:00:39.253Z,99969.50
2022-08-27T10:03:05.633Z,99972.94
2022-08-27T10:05:32.171Z,99969.19
2022-08-27T10:07:58.598Z,99968.31
2022-08-27T10:10:25.512Z,99964.50
2022-08-27T10:12:52.176Z,99969.44
2022-08-27T10:15:18.466Z,99964.81
2022-08-27T10:17:44.770Z,99973.28
2022-08-27T10:20:11.096Z,99967.72
2022-08-27T10:22:41.179Z,99963.94
2022-08-27T10:25:07.484Z,99961.66
2022-08-27T10:27:33.800Z,99966.31
2022-08-27T10:30:00.686Z,99966.16
2022-08-27T10:32:26.961Z,99963.38
2022-08-27T10:34:53.699Z,99971.84
2022-08-27T10:37:20.056Z,99961.47
2022-08-27T10:39:46.391Z,99969.56
2022-08-27T10:42:12.694Z,99965.25
2022-08-27T10:44:39.377Z,99969.69
2022-08-27T10:47:05.712Z,99965.19
2022-08-27T10:49:32.045Z,99966.22
2022-08-27T10:51:58.896Z,99965.19
2022-08-27T10:54:25.136Z,99972.50
2022-08-27T10:57:03.687Z,99978.84
2022-08-27T10:59:37.704Z,99982.84
2022-08-27T11:02:04.031Z,99977.00
2022-08-27T11:04:30.368Z,99978.13
2022-08-27T11:06:57.775Z,99980.03
2022-08-27T11:09:24.081Z,99975.09
2022-08-27T11:14:37.613Z,99971.22
2022-08-27T11:17:04.117Z,99978.00
2022-08-27T11:19:30.403Z,99978.06
2022-08-27T11:21:56.699Z,99974.44
2022-08-27T11:24:23.006Z,99974.19
2022-08-27T11:26:49.313Z,99981.59
2022-08-27T11:29:16.048Z,99978.44
2022-08-27T11:31:43.537Z,99976.78
2022-08-27T11:34:10.235Z,99980.56
2022-08-27T11:36:36.532Z,99983.00
2022-08-27T11:39:02.865Z,99981.22
2022-08-27T11:41:29.172Z,99984.78
2022-08-27T11:43:59.586Z,99983.59
2022-08-27T11:46:26.200Z,99970.84
2022-08-27T11:48:52.541Z,99988.13
2022-08-27T11:51:21.314Z,99972.97
2022-08-27T11:53:52.185Z,99985.13
2022-08-27T11:56:19.100Z,99975.28
2022-08-27T11:58:53.204Z,99973.78
2022-08-27T12:01:20.020Z,99976.34
2022-08-27T12:03:46.593Z,99974.06
2022-08-27T12:06:12.931Z,99973.63
2022-08-27T12:08:39.339Z,99967.41
2022-08-27T12:11:05.633Z,99972.50
2022-08-27T12:13:31.983Z,99970.16
2022-08-27T12:15:58.443Z,99964.88
2022-08-27T12:18:24.789Z,99968.09
2022-08-27T12:20:51.107Z,99963.91
2022-08-27T12:23:36.384Z,99971.97
2022-08-27T12:26:02.692Z,99972.03
2022-08-27T12:28:29.007Z,99969.97
2022-08-27T12:30:55.311Z,99959.75
2022-08-27T12:33:21.656Z,99968.06
2022-08-27T12:35:47.978Z,99964.81
2022-08-27T12:38:14.655Z,99957.59
2022-08-27T12:40:42.452Z,99965.84
2022-08-27T12:43:08.822Z,99964.06
2022-08-27T12:45:35.121Z,99968.06
2022-08-27T12:48:05.268Z,99957.13
2022-08-27T12:50:31.840Z,99959.75
2022-08-27T12:52:58.244Z,99958.19
2022-08-27T12:55:25.012Z,99954.88
2022-08-27T12:57:51.358Z,99957.50
2022-08-27T13:00:19.398Z,99957.91
2022-08-27T13:02:50.844Z,99957.84
2022-08-27T13:05:17.301Z,99962.84
2022-08-27T13:07:43.613Z,99957.66
2022-08-27T13:10:10.381Z,99966.50
2022-08-27T13:12:36.677Z,99958.50
2022-08-27T13:15:02.979Z,99957.72
2022-08-27T13:17:29.274Z,99956.69
2022-08-27T13:19:57.888Z,99953.88
2022-08-27T13:22:24.195Z,99960.78
2022-08-27T13:24:50.506Z,99950.53
2022-08-27T13:27:16.809Z,99951.13
2022-08-27T13:29:43.108Z,99957.31
2022-08-27T13:32:09.426Z,99961.47
2022-08-27T13:34:35.716Z,99953.13
2022-08-27T13:37:06.013Z,99957.72
2022-08-27T13:39:32.351Z,99957.91
2022-08-27T13:41:58.701Z,99954.28
2022-08-27T13:44:25.036Z,99954.53
2022-08-27T13:46:51.411Z,99951.31
2022-08-27T13:49:17.866Z,99955.22
2022-08-27T13:51:45.501Z,99952.91
2022-08-27T13:54:15.805Z,99956.28
2022-08-27T13:56:42.112Z,99944.44
2022-08-27T13:59:10.510Z,99952.97
2022-08-27T14:01:41.593Z,99953.88
2022-08-27T14:04:07.968Z,99958.97
2022-08-27T14:06:35.997Z,99957.84
2022-08-27T14:09:02.406Z,99954.56
2022-08-27T14:11:28.701Z,99955.94
2022-08-27T14:13:55.412Z,99957.28
2022-08-27T14:16:21.757Z,99954.53
2022-08-27T14:18:58.894Z,99958.91
2022-08-27T14:21:25.678Z,99954.94
2022-08-27T14:23:51.986Z,99967.75
2022-08-27T14:26:18.363Z,99963.59
2022-08-27T14:28:44.875Z,99964.13
2022-08-27T14:31:11.641Z,99963.13
2022-08-27T14:33:37.927Z,99966.22
2022-08-27T14:36:04.231Z,99958.59
2022-08-27T14:38:31.586Z,99961.88
2022-08-27T14:40:58.490Z,99960.63
2022-08-27T14:43:25.160Z,99962.97
2022-08-27T14:45:51.677Z,99973.03
2022-08-27T14:48:18.648Z,99957.13
2022-08-27T14:50:45.831Z,99961.38
2022-08-27T14:53:12.115Z,99959.03
2022-08-27T14:55:38.686Z,99960.03
2022-08-27T14:58:05.019Z,99961.47
2022-08-27T15:00:31.339Z,99956.16
2022-08-27T15:02:57.884Z,99956.72
2022-08-27T15:05:24.946Z,99954.22
2022-08-27T15:07:51.408Z,99961.13
2022-08-27T15:10:17.707Z,99962.19
2022-08-27T15:12:43.995Z,99962.50
2022-08-27T15:15:10.522Z,99969.88
2022-08-27T15:17:36.840Z,99975.88
2022-08-27T15:20:03.255Z,99970.66
2022-08-27T15:22:29.724Z,99969.34
2022-08-27T15:24:56.024Z,99972.22
2022-08-27T15:27:22.341Z,99964.25
2022-08-27T15:29:53.853Z,99960.56
2022-08-27T15:32:20.180Z,99962.59
2022-08-27T15:34:48.957Z,99955.41
2022-08-27T15:37:15.317Z,99961.19
2022-08-27T15:39:41.611Z,99961.25
2022-08-27T15:42:08.414Z,99958.19
2022-08-27T15:44:34.722Z,99959.34
2022-08-27T15:47:01.387Z,99963.66
2022-08-27T15:49:27.701Z,99957.66
2022-08-27T15:51:54.048Z,99961.28
2022-08-27T15:54:20.663Z,99956.66
2022-08-27T15:56:46.999Z,99962.31
2022-08-27T15:59:13.304Z,99963.75
2022-08-27T16:04:06.163Z,99959.81
2022-08-27T16:06:32.467Z,99954.75
2022-08-27T16:08:58.788Z,99955.41
2022-08-27T16:11:25.096Z,99960.22
2022-08-27T16:13:51.459Z,99957.19
2022-08-27T16:16:18.101Z,99952.72
2022-08-27T16:18:44.464Z,99950.66
2022-08-27T16:21:10.765Z,99945.53
2022-08-27T16:23:37.434Z,99943.34
2022-08-27T16:26:03.800Z,99944.28
2022-08-27T16:28:30.120Z,99943.91
2022-08-27T16:30:56.472Z,99948.06
2022-08-27T16:33:23.364Z,99943.16
2022-08-27T16:35:49.595Z,99944.44
2022-08-27T16:38:16.489Z,99941.13
2022-08-27T16:40:43.949Z,99937.13
2022-08-27T16:43:10.376Z,99943.16
2022-08-27T16:45:36.686Z,99946.06
2022-08-27T16:48:21.571Z,99937.41
2022-08-27T16:50:47.867Z,99938.97
2022-08-27T16:53:14.252Z,99939.75
2022-08-27T16:55:40.585Z,99940.47
2022-08-27T16:58:06.911Z,99943.84
2022-08-27T17:00:33.352Z,99940.25
2022-08-27T17:02:59.686Z,99947.66
2022-08-27T17:05:34.607Z,99949.06
2022-08-27T17:08:07.707Z,99954.69
2022-08-27T17:10:38.274Z,99953.44
2022-08-27T17:13:04.692Z,99957.50
2022-08-27T17:15:31.036Z,99962.59
2022-08-27T17:17:57.876Z,99970.66
2022-08-27T17:20:24.176Z,99967.72
2022-08-27T17:22:51.571Z,99970.41
2022-08-27T17:25:17.863Z,99973.53
2022-08-27T17:27:44.177Z,99980.88
2022-08-27T17:30:10.528Z,99983.69
2022-08-27T17:32:37.284Z,99985.25
2022-08-27T17:35:06.261Z,99984.06
2022-08-27T17:37:32.880Z,99992.34
2022-08-27T17:39:59.298Z,99984.28
2022-08-27T17:42:26.417Z,99984.38
2022-08-27T17:44:52.723Z,99985.81
2022-08-27T17:47:20.643Z,99983.56
2022-08-27T17:49:47.130Z,99995.09
2022-08-27T17:52:13.524Z,99993.50
2022-08-27T17:54:39.867Z,100009.78
2022-08-27T17:57:06.877Z,100008.81
2022-08-27T17:59:33.264Z,100003.09
2022-08-27T18:01:59.823Z,100006.03
2022-08-27T18:04:26.149Z,100006.09
2022-08-27T18:06:52.447Z,99998.31
2022-08-27T18:09:18.762Z,100007.13
2022-08-27T18:11:45.062Z,100011.00
2022-08-27T18:14:11.711Z,100009.84
2022-08-27T18:16:38.485Z,100018.94
2022-08-27T18:19:07.008Z,100020.22
2022-08-27T18:21:33.551Z,100015.00
2022-08-27T18:24:00.667Z,100022.72
2022-08-27T18:26:26.987Z,100019.63
2022-08-27T18:28:53.703Z,100029.28
2022-08-27T18:31:20.091Z,100026.00
2022-08-27T18:33:46.508Z,100036.44
2022-08-27T18:36:12.844Z,100035.78
2022-08-27T18:38:39.171Z,100036.44
2022-08-27T18:41:05.469Z,100033.78
2022-08-27T18:43:34.911Z,100028.81
2022-08-27T18:46:01.326Z,100040.13
2022-08-27T18:48:27.645Z,100039.44
2022-08-27T18:50:55.503Z,100047.75
2022-08-27T18:53:21.927Z,100041.91
2022-08-27T18:55:48.245Z,100051.66
2022-08-27T18:58:14.536Z,100043.69
2022-08-27T19:00:40.932Z,100052.66
2022-08-27T19:03:07.832Z,100052.91
2022-08-27T19:05:34.458Z,100053.69
2022-08-27T19:08:02.104Z,100055.94
2022-08-27T19:10:28.528Z,100050.19
2022-08-27T19:12:54.857Z,100056.13
2022-08-27T19:15:21.190Z,100058.22
2022-08-27T19:17:47.509Z,100065.75
2022-08-27T19:20:15.785Z,100064.25
2022-08-27T19:22:42.084Z,100068.75
2022-08-27T19:25:08.409Z,100063.59
2022-08-27T19:27:34.704Z,100071.41
2022-08-27T19:30:01.042Z,100074.78
2022-08-27T19:32:27.348Z,100078.72
2022-08-27T19:34:53.682Z,100082.72
2022-08-27T19:37:19.986Z,100072.78
2022-08-27T19:39:46.341Z,100078.06
2022-08-27T19:42:12.697Z,100078.53
2022-08-27T19:44:38.997Z,100076.28
2022-08-27T19:47:05.325Z,100074.59
2022-08-27T19:49:31.660Z,100076.03
2022-08-27T19:51:57.961Z,100072.97
2022-08-27T19:54:32.654Z,100077.13
2022-08-27T19:57:00.371Z,100067.91
2022-08-27T19:59:26.664Z,100080.25
2022-08-27T20:01:53.844Z,100070.06
2022-08-27T20:04:20.177Z,100068.75
2022-08-27T20:06:46.542Z,100075.19
2022-08-27T20:09:15.973Z,100073.28
2022-08-27T20:11:42.270Z,100073.75
2022-08-27T20:14:10.299Z,100079.31
2022-08-27T20:16:36.888Z,100077.34
2022-08-27T20:19:03.610Z,100075.44
2022-08-27T20:21:29.948Z,100071.94
2022-08-27T20:23:56.249Z,100072.38
2022-08-27T20:26:23.203Z,100068.19
2022-08-27T20:28:49.737Z,100073.31
2022-08-27T20:31:17.324Z,100064.19
2022-08-27T20:33:44.320Z,100068.94
2022-08-27T20:36:11.032Z,100068.59
2022-08-27T20:38:37.352Z,100067.16
2022-08-27T20:41:03.656Z,100072.59
2022-08-27T20:43:29.967Z,100075.44
2022-08-27T20:45:56.441Z,100074.13
2022-08-27T20:48:22.863Z,100075.72
2022-08-27T20:50:49.160Z,100080.72
2022-08-27T20:53:15.477Z,100076.63
2022-08-27T20:55:41.791Z,100076.31
2022-08-27T20:58:26.748Z,100082.25
2022-08-27T21:00:53.080Z,100070.28
2022-08-27T21:03:19.441Z,100081.00
2022-08-27T21:05:48.351Z,100080.19
2022-08-27T21:08:14.652Z,100075.97
2022-08-27T21:10:41.676Z,100081.63
2022-08-27T21:13:11.914Z,100085.03
2022-08-27T21:15:38.688Z,100077.72
2022-08-27T21:18:05.020Z,100077.22
2022-08-27T21:20:32.265Z,100079.63
2022-08-27T21:22:58.564Z,100075.06
2022-08-27T21:25:25.369Z,100073.59
2022-08-27T21:27:51.691Z,100080.28
2022-08-27T21:30:18.011Z,100067.97
2022-08-27T21:32:44.315Z,100071.81
2022-08-27T21:35:10.616Z,100083.00
2022-08-27T21:37:37.930Z,100077.78
2022-08-27T21:40:04.302Z,100078.13
2022-08-27T21:42:30.620Z,100078.47
2022-08-27T21:44:56.943Z,100070.97
2022-08-27T21:47:23.245Z,100076.19
2022-08-27T21:49:49.591Z,100076.88
2022-08-27T21:52:15.941Z,100082.22
2022-08-27T21:54:42.254Z,100072.94
2022-08-27T21:57:08.683Z,100080.69
2022-08-27T21:59:38.828Z,100090.50
2022-08-27T22:02:18.085Z,100082.50
2022-08-27T22:04:51.407Z,100083.84
2022-08-27T22:07:17.739Z,100084.38
2022-08-27T22:09:44.057Z,100088.72
2022-08-27T22:12:10.386Z,100086.69
2022-08-27T22:14:36.759Z,100078.41
2022-08-27T22:17:04.102Z,100090.22
2022-08-27T22:19:30.407Z,100074.66
2022-08-27T22:21:56.726Z,100083.38
2022-08-27T22:24:23.024Z,100078.34
2022-08-27T22:26:49.319Z,100083.34
2022-08-27T22:29:16.483Z,100082.72
2022-08-27T22:31:43.004Z,100077.53
2022-08-27T22:34:14.964Z,100071.09
2022-08-27T22:36:41.351Z,100078.22
2022-08-27T22:39:07.704Z,100070.69
2022-08-27T22:41:35.012Z,100076.59
2022-08-27T22:44:01.802Z,100075.22
2022-08-27T22:46:28.139Z,100072.09
2022-08-27T22:48:54.468Z,100074.75
2022-08-27T22:51:20.770Z,100078.22
2022-08-27T22:53:47.068Z,100079.91
2022-08-27T22:56:13.379Z,100079.91
2022-08-27T22:58:40.589Z,100079.59
2022-08-27T23:01:12.214Z,100085.72
2022-08-27T23:03:38.571Z,100088.72
2022-08-27T23:06:04.946Z,100086.28
2022-08-27T23:08:31.818Z,100087.13
2022-08-27T23:10:58.121Z,100093.66
2022-08-27T23:13:24.457Z,100089.56
2022-08-27T23:15:50.799Z,100091.84
2022-08-27T23:18:17.152Z,100093.41
2022-08-27T23:20:43.459Z,100086.13
2022-08-27T23:23:10.111Z,100092.69
2022-08-27T23:25:55.824Z,100091.31
2022-08-27T23:28:23.388Z,100093.25
2022-08-27T23:30:49.787Z,100096.47
2022-08-27T23:33:16.299Z,100093.78
2022-08-27T23:35:47.554Z,100093.19
2022-08-27T23:38:13.995Z,100089.56
2022-08-27T23:40:40.857Z,100087.66
2022-08-27T23:43:07.314Z,100096.47
2022-08-27T23:45:38.315Z,100101.22
2022-08-27T23:48:06.744Z,100099.31
2022-08-27T23:50:34.042Z,100103.41
2022-08-27T23:53:00.767Z,100106.34
2022-08-27T23:55:27.071Z,100105.72
2022-08-27T23:57:57.404Z,100092.78
